Weather History for Prince Rupert, BC

Change the Weather History Date:

Sunday, December 9, 2012

  Actual Average Record
Temperature  
Mean Temperature 38 °F -  
Max Temperature 44 °F 41 °F 53 °F (2002)
Min Temperature 33 °F 33 °F 23 °F (2000)
Degree Days  
Heating Degree Days 26    
Moisture  
Dew Point 39 °F    
Average Humidity 93    
Maximum Humidity 100    
Minimum Humidity 81    
Precipitation  
Precipitation 0.00 in - - ()
Sea Level Pressure  
Sea Level Pressure 30.08 in    
Wind  
Wind Speed 12 mph ()    
Max Wind Speed 21 mph    
Max Gust Speed 30 mph    
Visibility 5.8 miles    
Events Rain    
Averages and records for this station are not official NWS values.
T = Trace of Precipitation, MM = Missing Value Source: Averaged Metar Reports

Daily Weather History Graph

Daily Weather History Graph

Search for Another Location

Airport:

Trip Planner

Search our weather history database for the weather conditions in past years. The results will help you decide how hot, cold, wet, or windy it might be!

Date:

Astronomy

Dec. 09, 2012 Rise Set
Actual Time 8:50 AM PST 4:17 PM PST
Civil Twilight 8:06 AM PST 5:01 PM PST
Nautical Twilight 7:20 AM PST 5:48 PM PST
Astronomical Twilight 6:37 AM PST 6:31 PM PST
Moon 4:02 AM PST (12/9) 1:54 PM PST (12/9)
Length of Visible Light 8h 54m
Length of Day
7h 27m
Waning Crescent, 17% of the Moon is Illuminated
Dec 9
Waning Crescent
Dec 13
New
Dec 19
First Quarter
Dec 28
Full
Jan 4
Last Quarter

Hourly Weather History & Observations

Time (PST) Temp. Windchill Dew Point Humidity Pressure Visibility Wind Dir Wind Speed Gust Speed Precip Events Conditions
12:00 AM 35.6 °F 25.2 °F 33.8 °F 93% 30.00 in 9.0 mi SE 18.4 mph 24.2 mph N/A Rain Light Rain
12:09 AM 33.8 °F 23.5 °F 33.8 °F 100% 30.00 in 5.0 mi SE 16.1 mph 24.2 mph N/A Rain Light Rain
12:18 AM 35.6 °F 25.9 °F 33.8 °F 93% 29.99 in 6.0 mi ESE 16.1 mph 23.0 mph N/A Rain Light Rain
12:25 AM 35.6 °F 25.9 °F 33.8 °F 93% 29.98 in 5.0 mi ESE 16.1 mph 21.9 mph N/A Rain Light Rain
12:37 AM 35.6 °F 25.2 °F 33.8 °F 93% 29.95 in 3.0 mi ESE 18.4 mph 25.3 mph N/A   Overcast
12:42 AM 35.6 °F 25.5 °F 33.8 °F 93% 29.94 in 6.0 mi ESE 17.3 mph 24.2 mph N/A   Overcast
12:49 AM 35.6 °F 25.5 °F 33.8 °F 93% 29.93 in 9.0 mi SE 17.3 mph 28.8 mph N/A Rain Light Rain
12:59 AM 35.6 °F 24.8 °F 33.8 °F 93% 29.93 in 7.0 mi SE 19.6 mph 29.9 mph N/A Rain Light Rain
1:00 AM 35.6 °F 24.8 °F 33.8 °F 93% 29.93 in 7.0 mi SE 19.6 mph 29.9 mph N/A Rain Light Rain
1:11 AM 35.6 °F 25.9 °F 33.8 °F 93% 29.96 in 5.0 mi SE 16.1 mph 27.6 mph N/A Rain Rain
1:43 AM 35.6 °F 25.9 °F 33.8 °F 93% 29.93 in 3.0 mi ESE 16.1 mph 28.8 mph N/A   Overcast
1:48 AM 35.6 °F 24.5 °F 33.8 °F 93% 29.93 in 3.0 mi ESE 20.7 mph 26.5 mph N/A   Overcast
1:54 AM 35.6 °F 26.6 °F 33.8 °F 93% 29.92 in 2.2 mi ESE 13.8 mph 26.5 mph N/A   Overcast
2:00 AM 35.6 °F 25.9 °F 33.8 °F 93% 29.92 in 2.5 mi ESE 16.1 mph 28.8 mph N/A   Overcast
2:03 AM 35.6 °F 27.1 °F 33.8 °F 93% 29.93 in 3.0 mi ESE 12.7 mph 28.8 mph N/A   Overcast
2:12 AM 37.4 °F 30.3 °F 33.8 °F 87% 29.97 in 6.0 mi ESE 10.4 mph 17.3 mph N/A   Overcast
2:13 AM 37.4 °F 29.3 °F 33.8 °F 87% 29.97 in 5.0 mi ESE 12.7 mph - N/A   Overcast
2:18 AM 37.4 °F 29.8 °F 33.8 °F 87% 29.96 in 2.5 mi SE 11.5 mph 20.7 mph N/A   Overcast
2:37 AM 35.6 °F 27.1 °F 33.8 °F 93% 29.97 in 3.0 mi ESE 12.7 mph - N/A   Overcast
2:55 AM 35.6 °F 27.5 °F 33.8 °F 93% 29.97 in 2.5 mi ESE 11.5 mph - N/A   Overcast
3:00 AM 35.6 °F 27.5 °F 33.8 °F 93% 29.98 in 2.0 mi ESE 11.5 mph 19.6 mph N/A   Overcast
3:26 AM 37.4 °F 27.8 °F 35.6 °F 93% 29.97 in 3.0 mi ESE 17.3 mph - N/A   Overcast
3:31 AM 37.4 °F 28.5 °F 35.6 °F 93% 29.98 in 3.0 mi SE 15.0 mph 20.7 mph N/A   Overcast
3:36 AM 37.4 °F 27.8 °F 35.6 °F 93% 29.97 in 3.0 mi SE 17.3 mph 25.3 mph N/A Rain Light Rain
4:00 AM 37.4 °F 28.2 °F 35.6 °F 93% 29.97 in 3.0 mi SE 16.1 mph 24.2 mph N/A Rain Rain
4:57 AM 37.4 °F 27.2 °F 35.6 °F 93% 29.97 in 2.2 mi SE 19.6 mph 27.6 mph N/A Rain Light Rain
5:00 AM 37.4 °F 27.5 °F 35.6 °F 93% 29.97 in 2.2 mi SE 18.4 mph 27.6 mph N/A Rain Light Rain
5:04 AM 37.4 °F 27.5 °F 35.6 °F 93% 29.97 in 3.0 mi SE 18.4 mph 27.6 mph N/A Rain Light Rain
5:21 AM 37.4 °F 27.8 °F 35.6 °F 93% 29.97 in 2.5 mi SE 17.3 mph 23.0 mph N/A Rain Light Rain
5:35 AM 37.4 °F 27.8 °F 35.6 °F 93% 29.96 in 3.0 mi SE 17.3 mph 25.3 mph N/A Rain Light Rain
5:41 AM 39.2 °F 30.2 °F 35.6 °F 87% 29.96 in 7.0 mi SE 17.3 mph 24.2 mph N/A Rain Light Rain
6:00 AM 39.2 °F 30.5 °F 35.6 °F 87% 29.97 in 9.0 mi SE 16.1 mph - N/A Rain Light Rain
6:17 AM 39.2 °F 30.5 °F 37.4 °F 93% 29.97 in 5.0 mi SE 16.1 mph 21.9 mph N/A Rain Light Rain
6:34 AM 39.2 °F 31.6 °F 37.4 °F 93% 29.97 in 7.0 mi SE 12.7 mph 19.6 mph N/A Rain Light Rain
7:00 AM 39.2 °F 32.0 °F 37.4 °F 93% 30.00 in 9.0 mi SSE 11.5 mph 18.4 mph N/A Rain Light Rain
7:22 AM 39.2 °F 32.0 °F 37.4 °F 93% 30.01 in 5.0 mi SSE 11.5 mph 19.6 mph N/A Rain Light Rain
8:00 AM 39.2 °F 31.2 °F 37.4 °F 93% 30.01 in 3.0 mi SE 13.8 mph 20.7 mph N/A Rain Light Rain
8:08 AM 39.2 °F 32.5 °F 37.4 °F 93% 30.02 in 3.0 mi SE 10.4 mph 17.3 mph N/A Rain Light Rain
8:13 AM 39.2 °F 33.0 °F 37.4 °F 93% 30.03 in 6.0 mi SSE 9.2 mph - N/A Rain Light Rain
8:18 AM 39.2 °F 33.6 °F 39.2 °F 100% 30.03 in 5.0 mi SSE 8.1 mph - N/A Rain Light Rain
8:24 AM 39.2 °F 33.0 °F 39.2 °F 100% 30.03 in 6.0 mi SSE 9.2 mph - N/A Rain Light Rain
8:55 AM 39.2 °F 31.6 °F 39.2 °F 100% 30.06 in 5.0 mi SSE 12.7 mph - N/A Rain Light Rain
9:00 AM 39.2 °F 34.2 °F 39.2 °F 100% 30.06 in 5.0 mi SSE 6.9 mph - N/A Rain Light Rain
9:07 AM 39.2 °F 35.9 °F 39.2 °F 100% 30.07 in 2.5 mi SSE 4.6 mph - N/A Rain Light Rain
9:09 AM 39.2 °F 35.0 °F 39.2 °F 100% 30.07 in 1.8 mi South 5.8 mph - N/A Rain Light Rain
9:11 AM 39.2 °F 34.2 °F 39.2 °F 100% 30.07 in 1.5 mi SW 6.9 mph - N/A Rain Light Rain
9:24 AM 39.2 °F 35.9 °F 39.2 °F 100% 30.08 in 2.0 mi Variable 4.6 mph - N/A Rain Light Rain
9:27 AM 39.2 °F 34.2 °F 39.2 °F 100% 30.09 in 3.0 mi Variable 6.9 mph - N/A Rain Light Rain
9:29 AM 39.2 °F 33.0 °F 39.2 °F 100% 30.09 in 3.0 mi Variable 9.2 mph - N/A Rain Light Rain
9:30 AM 39.2 °F 33.0 °F 39.2 °F 100% 30.09 in 3.0 mi Variable 9.2 mph - N/A Rain Light Rain
9:33 AM 41.0 °F 35.2 °F 39.2 °F 93% 30.09 in 4.0 mi Variable 9.2 mph - N/A Rain Light Rain
9:38 AM 41.0 °F 35.8 °F 39.2 °F 93% 30.09 in 6.0 mi SSE 8.1 mph - N/A Rain Light Rain
9:49 AM 41.0 °F 36.4 °F 39.2 °F 93% 30.11 in 9.0 mi SSE 6.9 mph - N/A   Overcast
10:00 AM 39.2 °F 35.0 °F 39.2 °F 100% 30.10 in 9.0 mi SSE 5.8 mph - N/A   Overcast
10:17 AM 39.2 °F 35.0 °F 39.2 °F 100% 30.12 in 9.0 mi SE 5.8 mph - N/A Rain Light Rain
10:18 AM 39.2 °F 35.9 °F 39.2 °F 100% 30.12 in 9.0 mi SE 4.6 mph - N/A Rain Light Rain
10:20 AM 39.2 °F 37.0 °F 39.2 °F 100% 30.12 in 9.0 mi SE 3.5 mph - N/A Rain Light Rain
10:29 AM 42.8 °F 38.0 °F 41.0 °F 93% 30.12 in 9.0 mi Variable 8.1 mph - N/A   Overcast
10:40 AM 44.6 °F 39.2 °F 41.0 °F 87% 30.12 in 9.0 mi West 10.4 mph - N/A Rain Light Rain
10:52 AM 44.6 °F 40.7 °F 41.0 °F 87% 30.12 in 9.0 mi West 6.9 mph - N/A   Overcast
11:00 AM 44.6 °F 38.8 °F 39.2 °F 81% 30.12 in 9.0 mi WSW 11.5 mph - N/A   Overcast
11:42 AM 44.6 °F 39.7 °F 41.0 °F 87% 30.14 in 8.0 mi West 9.2 mph - N/A Rain Light Rain
11:57 AM 44.6 °F 40.2 °F 39.2 °F 81% 30.15 in 9.0 mi WSW 8.1 mph - N/A   Overcast
12:00 PM 44.6 °F 39.2 °F 39.2 °F 81% 30.15 in 9.0 mi West 10.4 mph - N/A   Overcast
1:48 PM 44.6 °F 39.2 °F 39.2 °F 81% 30.17 in 9.0 mi SW 10.4 mph - N/A Rain Light Rain
2:00 PM 44.6 °F 39.7 °F 39.2 °F 81% 30.17 in 8.0 mi SW 9.2 mph - N/A Rain Light Rain
2:18 PM 44.6 °F 40.7 °F 39.2 °F 81% 30.17 in 9.0 mi SSW 6.9 mph - N/A   Overcast
3:00 PM 44.6 °F 41.4 °F 39.2 °F 81% 30.17 in 9.0 mi SSW 5.8 mph - N/A   Overcast
3:33 PM 42.8 °F 38.0 °F 39.2 °F 87% 30.17 in 9.0 mi SSE 8.1 mph - N/A Rain Light Rain
3:47 PM 42.8 °F 38.0 °F 41.0 °F 93% 30.17 in 5.0 mi SSE 8.1 mph - N/A Rain Light Rain
3:54 PM 42.8 °F 38.0 °F 39.2 °F 87% 30.17 in 6.0 mi SSE 8.1 mph - N/A Rain Light Rain
4:00 PM 42.8 °F 37.5 °F 41.0 °F 93% 30.17 in 8.0 mi SSE 9.2 mph - N/A Rain Light Rain
4:22 PM 42.8 °F 38.0 °F 41.0 °F 93% 30.17 in 5.0 mi SSE 8.1 mph - N/A Rain Light Rain
4:23 PM 42.8 °F 38.0 °F 41.0 °F 93% 30.18 in 5.0 mi SSE 8.1 mph - N/A Rain Light Rain
4:35 PM 42.8 °F 37.0 °F 41.0 °F 93% 30.18 in 6.0 mi SSE 10.4 mph - N/A Rain Light Rain
5:00 PM 42.8 °F 39.3 °F 41.0 °F 93% 30.17 in 6.0 mi SSW 5.8 mph - N/A Rain Light Rain
5:06 PM 42.8 °F 39.3 °F 41.0 °F 93% 30.17 in 7.0 mi South 5.8 mph - N/A Rain Light Rain
5:09 PM 42.8 °F 39.3 °F 41.0 °F 93% 30.17 in 7.0 mi South 5.8 mph - N/A Rain Light Rain
5:10 PM 42.8 °F 38.6 °F 41.0 °F 93% 30.17 in 7.0 mi South 6.9 mph - N/A Rain Light Rain
5:13 PM 42.8 °F 38.6 °F 41.0 °F 93% 30.17 in 8.0 mi SSW 6.9 mph - N/A   Overcast
5:17 PM 44.6 °F 40.2 °F 41.0 °F 87% 30.17 in 7.0 mi SSW 8.1 mph - N/A Rain Light Rain
5:37 PM 44.6 °F 39.7 °F 41.0 °F 87% 30.18 in 8.0 mi South 9.2 mph 20.7 mph N/A   Overcast
6:00 PM 44.6 °F 39.2 °F 41.0 °F 87% 30.19 in 9.0 mi SW 10.4 mph - N/A   Overcast
7:00 PM 44.6 °F 39.7 °F 41.0 °F 87% 30.19 in 9.0 mi SSW 9.2 mph - N/A   Overcast
8:00 PM 44.6 °F 40.2 °F 42.8 °F 93% 30.19 in 9.0 mi SSW 8.1 mph - N/A   Overcast
9:00 PM 44.6 °F 40.7 °F 42.8 °F 93% 30.19 in 9.0 mi South 6.9 mph - N/A   Overcast
9:10 PM 44.6 °F 40.2 °F 42.8 °F 93% 30.19 in 9.0 mi South 8.1 mph - N/A   Overcast
9:19 PM 44.6 °F 42.2 °F 42.8 °F 93% 30.19 in 9.0 mi SSE 4.6 mph - N/A   Overcast
9:48 PM 44.6 °F 42.2 °F 42.8 °F 93% 30.19 in 9.0 mi Variable 4.6 mph - N/A Rain Light Rain
10:00 PM 42.8 °F 37.5 °F 42.8 °F 100% 30.19 in 9.0 mi SSE 9.2 mph - N/A Rain Light Rain
10:11 PM 42.8 °F 38.6 °F 42.8 °F 100% 30.19 in 7.0 mi SE 6.9 mph - N/A Rain Light Rain
10:14 PM 42.8 °F 38.6 °F 42.8 °F 100% 30.19 in 5.0 mi SSE 6.9 mph - N/A Rain Light Rain
10:26 PM 42.8 °F 37.0 °F 42.8 °F 100% 30.19 in 6.0 mi SSE 10.4 mph - N/A Rain Light Rain
10:40 PM 42.8 °F 37.5 °F 42.8 °F 100% 30.19 in 9.0 mi SE 9.2 mph - N/A Rain Light Rain
10:54 PM 42.8 °F 37.5 °F 42.8 °F 100% 30.19 in 7.0 mi SSE 9.2 mph - N/A   Overcast
11:00 PM 42.8 °F 37.5 °F 42.8 °F 100% 30.19 in 8.0 mi SSE 9.2 mph - N/A   Overcast
11:10 PM 42.8 °F 37.0 °F 41.0 °F 93% 30.19 in 6.0 mi SE 10.4 mph - N/A Rain Light Rain
11:14 PM 42.8 °F 38.6 °F 41.0 °F 93% 30.19 in 5.0 mi SE 6.9 mph - N/A Rain Light Rain
11:15 PM 42.8 °F 38.0 °F 41.0 °F 93% 30.19 in 5.0 mi SSE 8.1 mph - N/A Rain Light Rain
11:24 PM 42.8 °F 36.6 °F 42.8 °F 100% 30.18 in 2.2 mi SSE 11.5 mph - N/A Rain Light Rain
11:27 PM 42.8 °F 37.0 °F 42.8 °F 100% 30.18 in 2.2 mi SSE 10.4 mph - N/A Rain Light Rain
11:28 PM 42.8 °F 37.0 °F 42.8 °F 100% 30.18 in 2.2 mi SSE 10.4 mph - N/A Rain Light Rain
11:31 PM 42.8 °F 37.0 °F 41.0 °F 93% 30.18 in 1.8 mi SSE 10.4 mph - N/A Rain Light Rain
11:46 PM 42.8 °F 38.0 °F 42.8 °F 100% 30.18 in 2.0 mi SSE 8.1 mph - N/A Rain Light Rain